Time;durP1;ratioP1;P1;durP2;ratioP2;P2;SDS_P1;SDS_P2;PMS_P1;PMS_P2;Temp;Humidity;BMP_temperature;BMP_pressure;BME280_temperature;BME280_humidity;BME280_pressure;Samples;Min_cycle;Max_cycle;Signal;HPM_P1;HPM_P2
2023/01/29 00:00:22;;;;;;;24.1;14.3;;;;;;;;;;;;;
2023/01/29 00:02:47;;;;;;;23.9;14.2;;;;;;;;;;;;;
2023/01/29 00:05:14;;;;;;;24.4;14.7;;;;;;;;;;;;;
2023/01/29 00:07:48;;;;;;;24;14.3;;;;;;;;;;;;;
2023/01/29 00:10:21;;;;;;;24.2;14.5;;;;;;;;;;;;;
2023/01/29 00:12:51;;;;;;;23.2;13.6;;;;;;;;;;;;;
2023/01/29 00:15:17;;;;;;;19.5;12.7;;;;;;;;;;;;;
2023/01/29 00:17:45;;;;;;;19.9;11.6;;;;;;;;;;;;;
2023/01/29 00:20:14;;;;;;;21.1;11.5;;;;;;;;;;;;;
2023/01/29 00:22:41;;;;;;;24.6;13;;;;;;;;;;;;;
2023/01/29 00:25:15;;;;;;;22.5;11.7;;;;;;;;;;;;;
2023/01/29 00:27:46;;;;;;;19.9;11.8;;;;;;;;;;;;;
2023/01/29 00:30:20;;;;;;;19.8;12;;;;;;;;;;;;;
2023/01/29 00:32:50;;;;;;;18.1;12.1;;;;;;;;;;;;;
2023/01/29 00:35:15;;;;;;;20.3;11.9;;;;;;;;;;;;;
2023/01/29 00:37:41;;;;;;;20.3;12.9;;;;;;;;;;;;;
2023/01/29 00:40:08;;;;;;;20.4;11.9;;;;;;;;;;;;;
2023/01/29 00:45:03;;;;;;;20.9;11.6;;;;;;;;;;;;;
2023/01/29 00:47:32;;;;;;;19.5;11.7;;;;;;;;;;;;;
2023/01/29 00:49:53;;;;;;;19;10.7;;;;;;;;;;;;;
2023/01/29 00:52:24;;;;;;;17.4;11;;;;;;;;;;;;;
2023/01/29 00:54:43;;;;;;;17.8;11.5;;;;;;;;;;;;;
2023/01/29 00:57:09;;;;;;;18.3;10.5;;;;;;;;;;;;;
2023/01/29 00:59:34;;;;;;;16.1;10;;;;;;;;;;;;;
2023/01/29 01:04:27;;;;;;;16.3;9.6;;;;;;;;;;;;;
2023/01/29 01:06:52;;;;;;;17.6;10.8;;;;;;;;;;;;;
2023/01/29 01:11:42;;;;;;;18.4;11;;;;;;;;;;;;;
2023/01/29 01:14:08;;;;;;;20.2;10.8;;;;;;;;;;;;;
2023/01/29 01:16:33;;;;;;;18.2;10.7;;;;;;;;;;;;;
2023/01/29 01:18:58;;;;;;;18;10.7;;;;;;;;;;;;;
2023/01/29 01:21:24;;;;;;;17.8;11.3;;;;;;;;;;;;;
2023/01/29 01:23:50;;;;;;;18.8;11.3;;;;;;;;;;;;;
2023/01/29 01:26:14;;;;;;;17.5;11.5;;;;;;;;;;;;;
2023/01/29 01:28:39;;;;;;;20.3;11.4;;;;;;;;;;;;;
2023/01/29 01:31:06;;;;;;;19.6;10.5;;;;;;;;;;;;;
2023/01/29 01:33:31;;;;;;;17.3;10.3;;;;;;;;;;;;;
2023/01/29 01:35:59;;;;;;;18.7;11.5;;;;;;;;;;;;;
2023/01/29 01:38:24;;;;;;;17.1;10.6;;;;;;;;;;;;;
2023/01/29 01:40:49;;;;;;;19.5;11.5;;;;;;;;;;;;;
2023/01/29 01:43:16;;;;;;;21;10.9;;;;;;;;;;;;;
2023/01/29 01:45:45;;;;;;;19.6;11.4;;;;;;;;;;;;;
2023/01/29 01:48:11;;;;;;;17.8;10.7;;;;;;;;;;;;;
2023/01/29 01:50:38;;;;;;;17.9;11.7;;;;;;;;;;;;;
2023/01/29 01:53:03;;;;;;;19;11.7;;;;;;;;;;;;;
2023/01/29 01:55:33;;;;;;;19.1;11.4;;;;;;;;;;;;;
2023/01/29 01:57:57;;;;;;;17.9;10.8;;;;;;;;;;;;;
2023/01/29 02:00:22;;;;;;;17.9;11.3;;;;;;;;;;;;;
2023/01/29 02:10:03;;;;;;;17.1;11.4;;;;;;;;;;;;;
2023/01/29 02:12:31;;;;;;;19;11.1;;;;;;;;;;;;;
2023/01/29 02:14:56;;;;;;;17.6;10.8;;;;;;;;;;;;;
2023/01/29 02:17:23;;;;;;;15.1;9.5;;;;;;;;;;;;;
2023/01/29 02:19:48;;;;;;;16.6;9.6;;;;;;;;;;;;;
2023/01/29 02:22:15;;;;;;;15.6;9.8;;;;;;;;;;;;;
2023/01/29 02:24:38;;;;;;;15.8;9.8;;;;;;;;;;;;;
2023/01/29 02:27:03;;;;;;;16.6;9.4;;;;;;;;;;;;;
2023/01/29 02:29:32;;;;;;;18.1;10.6;;;;;;;;;;;;;
2023/01/29 02:31:55;;;;;;;16.8;10.2;;;;;;;;;;;;;
2023/01/29 02:34:20;;;;;;;15.2;10.3;;;;;;;;;;;;;
2023/01/29 02:36:45;;;;;;;16.7;10.4;;;;;;;;;;;;;
2023/01/29 02:39:14;;;;;;;17.7;11.2;;;;;;;;;;;;;
2023/01/29 02:41:39;;;;;;;16.5;10.7;;;;;;;;;;;;;
2023/01/29 02:44:07;;;;;;;16.7;10.4;;;;;;;;;;;;;
2023/01/29 02:46:32;;;;;;;19.7;11.5;;;;;;;;;;;;;
2023/01/29 02:48:57;;;;;;;18.6;10.9;;;;;;;;;;;;;
2023/01/29 02:51:22;;;;;;;19;11.4;;;;;;;;;;;;;
2023/01/29 02:53:49;;;;;;;18.7;12.1;;;;;;;;;;;;;
2023/01/29 02:56:13;;;;;;;19.8;11.7;;;;;;;;;;;;;
2023/01/29 02:58:38;;;;;;;17.7;10.2;;;;;;;;;;;;;
2023/01/29 03:01:03;;;;;;;14.4;9.5;;;;;;;;;;;;;
2023/01/29 03:03:28;;;;;;;14.7;8.9;;;;;;;;;;;;;
2023/01/29 03:05:57;;;;;;;13.9;8.8;;;;;;;;;;;;;
2023/01/29 03:08:21;;;;;;;15.8;9.1;;;;;;;;;;;;;
2023/01/29 03:10:47;;;;;;;14.5;8.8;;;;;;;;;;;;;
2023/01/29 03:13:12;;;;;;;13.7;8.6;;;;;;;;;;;;;
2023/01/29 03:15:41;;;;;;;14.5;9;;;;;;;;;;;;;
2023/01/29 03:18:03;;;;;;;13.7;8.3;;;;;;;;;;;;;
2023/01/29 03:20:31;;;;;;;15.4;9.1;;;;;;;;;;;;;
2023/01/29 03:22:55;;;;;;;14.7;9.2;;;;;;;;;;;;;
2023/01/29 03:32:37;;;;;;;14.9;9.1;;;;;;;;;;;;;
2023/01/29 03:35:02;;;;;;;14.9;9.1;;;;;;;;;;;;;
2023/01/29 03:37:26;;;;;;;15.8;9.2;;;;;;;;;;;;;
2023/01/29 03:39:51;;;;;;;13.4;8.5;;;;;;;;;;;;;
2023/01/29 03:42:16;;;;;;;15.4;9.4;;;;;;;;;;;;;
2023/01/29 03:44:41;;;;;;;14.9;8.4;;;;;;;;;;;;;
2023/01/29 03:47:07;;;;;;;14.4;8.6;;;;;;;;;;;;;
2023/01/29 03:49:32;;;;;;;15.7;9.6;;;;;;;;;;;;;
2023/01/29 03:51:57;;;;;;;14.8;8.9;;;;;;;;;;;;;
2023/01/29 03:54:25;;;;;;;14.8;8.8;;;;;;;;;;;;;
2023/01/29 03:56:47;;;;;;;15.5;9.2;;;;;;;;;;;;;
2023/01/29 03:59:12;;;;;;;15.5;9.5;;;;;;;;;;;;;
2023/01/29 04:02:35;;;;;;;13.5;8.6;;;;;;;-2;85.77734;944.7997;;;;
2023/01/29 04:05:35;;;;;;;15.2;8.7;;;;;;;-2.07;85.91797;944.6891;;;;
2023/01/29 04:08:00;;;;;;;13.2;8.6;;;;;;;-2.17;86.88574;944.7436;;;;
2023/01/29 04:10:26;;;;;;;16.4;9.7;;;;;;;-2.15;86.9541;944.5861;;;;
2023/01/29 04:12:51;;;;;;;15.9;9.3;;;;;;;-2.08;86.51465;944.7;;;;
2023/01/29 04:15:18;;;;;;;15;9.2;;;;;;;-2.13;86.99121;944.6644;;;;
2023/01/29 04:17:46;;;;;;;15.7;9.2;;;;;;;-2.08;86.79199;944.7;;;;
2023/01/29 04:20:11;;;;;;;16.3;8.9;;;;;;;-2.02;86.56055;944.6545;;;;
2023/01/29 04:22:42;;;;;;;15.4;9.7;;;;;;;-1.96;85.95313;944.6725;;;;
2023/01/29 04:25:08;;;;;;;15.4;9.4;;;;;;;-2.01;86.28516;944.7053;;;;
2023/01/29 04:27:34;;;;;;;14.5;8.8;;;;;;;-2;86.30957;944.6308;;;;
2023/01/29 04:29:59;;;;;;;14.5;8.9;;;;;;;-1.98;86.40332;944.655;;;;
2023/01/29 04:32:29;;;;;;;14.3;9.1;;;;;;;-1.94;86.01172;944.5172;;;;
2023/01/29 04:38:11;;;;;;;14.4;9;;;;;;;-2.1;87.06543;944.5089;;;;
2023/01/29 04:40:37;;;;;;;16.1;8.9;;;;;;;-2.19;87.45605;944.4875;;;;
2023/01/29 04:43:03;;;;;;;15.7;9.2;;;;;;;-2.09;87.38867;944.514;;;;
2023/01/29 04:45:32;;;;;;;14.8;9.4;;;;;;;-1.99;86.82129;944.4208;;;;
2023/01/29 04:47:57;;;;;;;15.3;9.6;;;;;;;-1.99;86.21191;944.3802;;;;
2023/01/29 04:50:22;;;;;;;16.6;9.2;;;;;;;-2.22;86.73926;944.3901;;;;
2023/01/29 04:53:30;;;;;;;17.8;10.2;;;;;;;-2.32;87.30762;944.3519;;;;
2023/01/29 04:55:55;;;;;;;14.3;9.2;;;;;;;-2.39;87.71582;944.4017;;;;
2023/01/29 05:00:45;;;;;;;15.2;9.6;;;;;;;-2.45;87.68945;944.4166;;;;
2023/01/29 05:03:15;;;;;;;16.6;10.1;;;;;;;-2.47;87.35352;944.3647;;;;
2023/01/29 05:05:40;;;;;;;16.4;9.8;;;;;;;-2.54;87.42676;944.3441;;;;
2023/01/29 05:08:10;;;;;;;19;10.8;;;;;;;-2.8;88.75781;944.3228;;;;
2023/01/29 05:10:51;;;;;;;15.1;9.4;;;;;;;-2.87;89.17383;944.4039;;;;
2023/01/29 05:13:16;;;;;;;17.6;10.2;;;;;;;-2.93;89.72461;944.3233;;;;
2023/01/29 05:15:41;;;;;;;17.8;10.3;;;;;;;-2.91;89.75098;944.3839;;;;
2023/01/29 05:18:07;;;;;;;19;10.9;;;;;;;-2.86;89.17383;944.3834;;;;
2023/01/29 05:20:32;;;;;;;15.3;9.4;;;;;;;-3.06;89.08691;944.399;;;;
2023/01/29 05:22:57;;;;;;;17.7;9.7;;;;;;;-3.22;89.53027;944.4525;;;;
2023/01/29 05:25:23;;;;;;;16.7;9.2;;;;;;;-3.34;89.72363;944.3647;;;;
2023/01/29 05:28:10;;;;;;;15.2;9.5;;;;;;;-3.48;90.15918;944.4036;;;;
2023/01/29 05:30:13;;;;;;;17.4;9.5;;;;;;;-3.46;90.05273;944.5047;;;;
2023/01/29 05:32:43;;;;;;;15.9;9.1;;;;;;;-3.52;89.9082;944.4877;;;;
2023/01/29 05:35:12;;;;;;;15.3;8.4;;;;;;;-3.62;90.03906;944.4028;;;;
2023/01/29 05:37:37;;;;;;;14.6;8.8;;;;;;;-3.74;91.02051;944.5267;;;;
2023/01/29 05:40:08;;;;;;;15.9;9.3;;;;;;;-3.67;91.29102;944.5764;;;;
2023/01/29 05:42:33;;;;;;;16;9.3;;;;;;;-3.66;91.31445;944.3869;;;;
2023/01/29 05:45:00;;;;;;;16.8;9.6;;;;;;;-3.58;90.64551;944.4734;;;;
2023/01/29 05:47:24;;;;;;;16.2;9.3;;;;;;;-3.53;89.81738;944.4579;;;;
2023/01/29 05:49:54;;;;;;;15.6;8.9;;;;;;;-3.55;89.46973;944.5115;;;;
2023/01/29 05:52:19;;;;;;;13.9;8;;;;;;;-3.59;89.3291;944.5502;;;;
2023/01/29 05:54:47;;;;;;;14.7;8.6;;;;;;;-3.73;89.56348;944.6489;;;;
2023/01/29 05:57:11;;;;;;;18.2;9.5;;;;;;;-3.8;89.86816;944.6614;;;;
2023/01/29 05:59:40;;;;;;;17.1;9.7;;;;;;;-3.81;90.39844;944.7273;;;;
2023/01/29 06:05:44;;;;;;;14.2;9.1;;;;;;;-3.73;89.86133;944.8418;;;;
2023/01/29 06:08:12;;;;;;;16.8;9.7;;;;;;;-3.73;89.43262;944.7401;;;;
2023/01/29 06:10:37;;;;;;;18.2;10.9;;;;;;;-3.73;89.33203;944.9317;;;;
2023/01/29 06:13:06;;;;;;;15.3;9.8;;;;;;;-3.7;89.06348;944.9508;;;;
2023/01/29 06:15:31;;;;;;;16.4;9.7;;;;;;;-3.73;88.83691;944.9501;;;;
2023/01/29 06:18:00;;;;;;;15.9;9.7;;;;;;;-3.77;88.5625;944.9872;;;;
2023/01/29 06:20:29;;;;;;;17.2;10.1;;;;;;;-3.82;88.18652;945.072;;;;
2023/01/29 06:22:54;;;;;;;15.1;9.4;;;;;;;-3.88;88.46191;945.1145;;;;
2023/01/29 06:25:22;;;;;;;13.9;8;;;;;;;-3.85;88.01563;945.2875;;;;
2023/01/29 06:27:47;;;;;;;13;9.3;;;;;;;-4.05;87.82031;945.2122;;;;
2023/01/29 06:30:16;;;;;;;13.8;8.6;;;;;;;-3.91;87.50488;945.2647;;;;
2023/01/29 06:32:43;;;;;;;12.2;7.6;;;;;;;-3.86;87.56055;945.2996;;;;
2023/01/29 06:35:09;;;;;;;13.2;8.5;;;;;;;-3.73;86.9248;945.3653;;;;
2023/01/29 06:37:38;;;;;;;12.6;8.6;;;;;;;-3.62;85.85352;945.4425;;;;
2023/01/29 06:40:03;;;;;;;12.8;8.3;;;;;;;-3.78;84.78516;945.4356;;;;
2023/01/29 06:42:35;;;;;;;14.7;8.7;;;;;;;-3.85;83.59961;945.3809;;;;
2023/01/29 06:45:04;;;;;;;14.6;8.7;;;;;;;-4.14;84.46875;945.3528;;;;
2023/01/29 06:47:33;;;;;;;15.5;8.7;;;;;;;-4.03;84.99805;945.3948;;;;
2023/01/29 06:49:58;;;;;;;16.3;10.3;;;;;;;-4.2;86.19824;945.4814;;;;
2023/01/29 06:52:28;;;;;;;13.2;8.5;;;;;;;-4.1;86.68262;945.4684;;;;
2023/01/29 06:54:58;;;;;;;13.7;8.4;;;;;;;-4.09;86.66406;945.4639;;;;
2023/01/29 06:57:26;;;;;;;11;6.9;;;;;;;-4.13;86.76465;945.5639;;;;
2023/01/29 06:59:51;;;;;;;11.3;7;;;;;;;-4.24;87.19434;945.423;;;;
2023/01/29 07:02:17;;;;;;;12;7.3;;;;;;;-4.14;87.25977;945.5438;;;;
2023/01/29 07:04:42;;;;;;;11.6;7.4;;;;;;;-3.9;86.54883;945.5527;;;;
2023/01/29 07:07:12;;;;;;;14;8.6;;;;;;;-3.77;85.05176;945.4239;;;;
2023/01/29 07:09:42;;;;;;;17.9;10.8;;;;;;;-3.87;84.7793;945.517;;;;
2023/01/29 07:12:07;;;;;;;13.2;8.8;;;;;;;-4.03;85.46191;945.4337;;;;
2023/01/29 07:14:36;;;;;;;13.1;8;;;;;;;-3.98;85.60352;945.4063;;;;
2023/01/29 07:17:01;;;;;;;14.7;9.1;;;;;;;-3.98;85.4043;945.4041;;;;
2023/01/29 07:19:27;;;;;;;15.2;10;;;;;;;-4;85.6543;945.3954;;;;
2023/01/29 07:21:52;;;;;;;17.7;10.5;;;;;;;-3.98;85.32715;945.3658;;;;
2023/01/29 07:24:21;;;;;;;16.5;10.6;;;;;;;-4.13;85.39746;945.4292;;;;
2023/01/29 07:26:46;;;;;;;16.6;10.5;;;;;;;-4.1;85.64746;945.447;;;;
2023/01/29 07:29:13;;;;;;;18.6;11.2;;;;;;;-4.28;85.59766;945.3717;;;;
2023/01/29 07:31:39;;;;;;;18.8;11.3;;;;;;;-4.06;85.99707;945.4889;;;;
2023/01/29 07:34:04;;;;;;;15.3;8.6;;;;;;;-3.74;84.76074;945.5009;;;;
2023/01/29 07:36:29;;;;;;;15;8.7;;;;;;;-3.63;82.64063;945.3721;;;;
2023/01/29 07:38:57;;;;;;;13.1;7.7;;;;;;;-3.54;82.43555;945.3638;;;;
2023/01/29 07:41:22;;;;;;;13.6;8.5;;;;;;;-3.49;82.15723;945.3447;;;;
2023/01/29 07:43:51;;;;;;;13.3;8.5;;;;;;;-3.2;81.1543;945.241;;;;
2023/01/29 07:46:16;;;;;;;13.1;8.4;;;;;;;-3.03;79.89355;945.3075;;;;
2023/01/29 07:48:44;;;;;;;11.9;8.3;;;;;;;-2.55;79.65137;945.2227;;;;
2023/01/29 07:51:09;;;;;;;12.1;8;;;;;;;-2.26;77.0498;945.1839;;;;
2023/01/29 07:53:35;;;;;;;10.7;7.5;;;;;;;-2.24;76.74121;945.2567;;;;
2023/01/29 07:56:03;;;;;;;12;8.2;;;;;;;-2.2;76.0957;945.2819;;;;
2023/01/29 07:58:28;;;;;;;12.8;8.5;;;;;;;-1.87;75.70215;945.2523;;;;
2023/01/29 08:00:58;;;;;;;13.8;9;;;;;;;-1.32;73.30273;945.1955;;;;
2023/01/29 08:03:24;;;;;;;12.2;8.5;;;;;;;-1.23;72.60547;945.2176;;;;
2023/01/29 08:05:49;;;;;;;17.5;10.7;;;;;;;-1.22;71.97559;945.1432;;;;
2023/01/29 08:08:18;;;;;;;17.4;10.8;;;;;;;-0.64;70.96094;945.16;;;;
2023/01/29 08:10:43;;;;;;;20.1;11.7;;;;;;;-0.28;68.79492;945.1724;;;;
2023/01/29 08:13:14;;;;;;;17.4;10.9;;;;;;;-0.07;68.02832;945.1323;;;;
2023/01/29 08:15:39;;;;;;;18.2;11;;;;;;;-0.57;68.87012;945.0589;;;;
2023/01/29 08:18:13;;;;;;;15.6;9.6;;;;;;;-0.16;67.89063;945.1096;;;;
2023/01/29 08:20:40;;;;;;;17.5;10.4;;;;;;;-0.64;69.43848;945.1055;;;;
2023/01/29 08:23:05;;;;;;;17;10.7;;;;;;;-0.54;69.59766;945.0851;;;;
2023/01/29 08:25:35;;;;;;;22.4;12.6;;;;;;;0.54;67.6582;945.0687;;;;
2023/01/29 08:28:05;;;;;;;18.1;11.1;;;;;;;1.1;63.32617;945.0126;;;;
2023/01/29 08:30:30;;;;;;;17.2;10.3;;;;;;;0.79;64.73926;944.9897;;;;
2023/01/29 08:32:57;;;;;;;16;9.6;;;;;;;3.07;59.15332;944.9233;;;;
2023/01/29 08:35:22;;;;;;;11.5;7.4;;;;;;;1.98;59.57324;944.9498;;;;
2023/01/29 08:37:52;;;;;;;11.4;7.9;;;;;;;1.3;61.68945;944.991;;;;
2023/01/29 08:40:17;;;;;;;12.4;7.5;;;;;;;0.7;64.03516;944.9702;;;;
2023/01/29 08:42:48;;;;;;;11.1;7.2;;;;;;;2.08;61.99414;944.8823;;;;
2023/01/29 08:45:21;;;;;;;12.4;8.5;;;;;;;4.49;54.51172;944.8747;;;;
2023/01/29 08:47:51;;;;;;;11.1;7.4;;;;;;;4.4;52.5752;944.8482;;;;
2023/01/29 08:50:19;;;;;;;10.7;8;;;;;;;2.39;57.42285;944.8484;;;;
2023/01/29 08:52:45;;;;;;;12.9;9.1;;;;;;;1.5;61.10547;944.8783;;;;
2023/01/29 08:55:15;;;;;;;16.9;10.7;;;;;;;1.2;62.14551;944.8831;;;;
2023/01/29 08:57:42;;;;;;;18.6;12.3;;;;;;;0.51;64.74219;944.8761;;;;
2023/01/29 09:00:08;;;;;;;16.9;11.5;;;;;;;1.93;62.57617;944.8417;;;;
2023/01/29 09:02:39;;;;;;;18.1;11.3;;;;;;;2.39;58.73438;944.7698;;;;
2023/01/29 09:05:10;;;;;;;16.7;11.2;;;;;;;1.36;61.28516;944.7626;;;;
2023/01/29 09:07:37;;;;;;;14.9;10.3;;;;;;;1.43;62.59277;944.7489;;;;
2023/01/29 09:10:02;;;;;;;15.9;10.1;;;;;;;1.55;62.16211;944.7709;;;;
2023/01/29 09:12:30;;;;;;;13.9;9.7;;;;;;;1.21;63.15137;944.7051;;;;
2023/01/29 09:14:55;;;;;;;17.1;11.2;;;;;;;0.33;66.35352;944.7594;;;;
2023/01/29 09:17:24;;;;;;;15.1;9.9;;;;;;;-0.06;68.36426;944.8123;;;;
2023/01/29 09:19:55;;;;;;;13.2;9.3;;;;;;;-0.45;70.00391;944.7597;;;;
2023/01/29 09:22:29;;;;;;;13.7;9.8;;;;;;;-0.9;72.35059;944.7402;;;;
2023/01/29 09:24:58;;;;;;;12.6;9.5;;;;;;;-0.82;71.94238;944.7858;;;;
2023/01/29 09:27:27;;;;;;;15.8;9.4;;;;;;;-0.72;71.68262;944.7626;;;;
2023/01/29 09:29:52;;;;;;;15.2;9.5;;;;;;;-0.86;72.45801;944.8309;;;;
2023/01/29 09:32:21;;;;;;;14.2;9.2;;;;;;;-1;72.80176;944.767;;;;
2023/01/29 09:34:46;;;;;;;15.7;9.5;;;;;;;-0.93;73.42578;944.8317;;;;
2023/01/29 09:37:16;;;;;;;14.7;9.4;;;;;;;-0.69;72.76758;944.8124;;;;
2023/01/29 09:39:46;;;;;;;14.5;9.6;;;;;;;-0.55;72.40039;944.788;;;;
2023/01/29 09:42:12;;;;;;;11.3;7.8;;;;;;;-0.35;71.85742;944.8647;;;;
2023/01/29 09:44:37;;;;;;;12.9;8.4;;;;;;;-0.44;71.41699;944.8627;;;;
2023/01/29 09:47:06;;;;;;;11.5;7.8;;;;;;;-0.59;71.02539;944.8791;;;;
2023/01/29 09:49:34;;;;;;;12.6;7.2;;;;;;;-0.53;71.3252;944.8615;;;;
2023/01/29 09:52:00;;;;;;;11.4;7.3;;;;;;;-0.21;70.59961;944.8448;;;;
2023/01/29 09:54:26;;;;;;;8.2;5.8;;;;;;;-0.1;69.00488;944.863;;;;
2023/01/29 09:56:51;;;;;;;11.7;6.7;;;;;;;-0.06;68.82129;944.8645;;;;
2023/01/29 09:59:16;;;;;;;9;6.2;;;;;;;0.19;68.58398;944.903;;;;
2023/01/29 10:01:42;;;;;;;9.7;6.6;;;;;;;0.31;68.63574;944.9032;;;;
2023/01/29 10:04:11;;;;;;;9.5;7;;;;;;;0.45;67.84375;944.9337;;;;
2023/01/29 10:06:39;;;;;;;9.7;6.6;;;;;;;0.59;67.14258;944.9196;;;;
2023/01/29 10:09:28;;;;;;;8.9;6.4;;;;;;;0.42;66.25684;945.0002;;;;
2023/01/29 10:11:52;;;;;;;9.8;6.3;;;;;;;0.46;66.02832;944.9741;;;;
2023/01/29 10:14:18;;;;;;;10.4;6.9;;;;;;;0.6;66.51855;945.0217;;;;
2023/01/29 10:16:43;;;;;;;10.5;7.2;;;;;;;0.79;66.00195;945.0559;;;;
2023/01/29 10:19:12;;;;;;;11.3;7.5;;;;;;;0.96;66.38574;945.1167;;;;
2023/01/29 10:21:37;;;;;;;10;7.3;;;;;;;1.14;65.03906;945.0658;;;;
2023/01/29 10:24:03;;;;;;;12.1;7.7;;;;;;;1.15;64.70703;945.0453;;;;
2023/01/29 10:26:30;;;;;;;11.3;7.6;;;;;;;1.18;64.67773;945.0994;;;;
2023/01/29 10:28:56;;;;;;;10.2;7.6;;;;;;;1.24;64.97754;945.1824;;;;
2023/01/29 10:31:21;;;;;;;11.1;7.6;;;;;;;1.13;65.85449;945.2245;;;;
2023/01/29 10:33:46;;;;;;;11.3;7.9;;;;;;;0.89;67.22266;945.1926;;;;
2023/01/29 10:36:11;;;;;;;11;7.9;;;;;;;0.93;66.82715;945.2012;;;;
2023/01/29 10:38:36;;;;;;;11.6;8.4;;;;;;;1.02;66.2832;945.165;;;;
2023/01/29 10:41:03;;;;;;;12.9;8.9;;;;;;;0.84;66.87988;945.1842;;;;
2023/01/29 10:43:31;;;;;;;13.2;8.6;;;;;;;0.76;67.32422;945.1231;;;;
2023/01/29 10:46:00;;;;;;;15;9.2;;;;;;;0.8;67.94531;945.1685;;;;
2023/01/29 10:48:32;;;;;;;13.5;8.6;;;;;;;0.7;68.77734;945.0993;;;;
2023/01/29 10:51:01;;;;;;;12.2;8.1;;;;;;;0.87;67.7207;945.1248;;;;
2023/01/29 10:53:26;;;;;;;12.8;8.3;;;;;;;0.88;68.38281;945.0692;;;;
2023/01/29 10:55:53;;;;;;;12.5;8.1;;;;;;;0.78;69.2373;945.1196;;;;
2023/01/29 10:58:18;;;;;;;12.6;8.5;;;;;;;0.75;69.52246;945.0558;;;;
2023/01/29 11:00:43;;;;;;;10.9;7.6;;;;;;;0.79;69.51758;945.0393;;;;
2023/01/29 11:03:09;;;;;;;13.3;8.6;;;;;;;0.79;69.50586;945.0064;;;;
2023/01/29 11:05:34;;;;;;;12;8.3;;;;;;;0.91;68.7666;944.9593;;;;
2023/01/29 11:08:03;;;;;;;12.4;8.6;;;;;;;0.94;69.49707;944.903;;;;
2023/01/29 11:10:28;;;;;;;11.4;8;;;;;;;1.13;68.25586;944.8472;;;;
2023/01/29 11:12:53;;;;;;;11.4;8;;;;;;;0.99;68.53418;944.8597;;;;
2023/01/29 11:15:27;;;;;;;12.2;8.4;;;;;;;1.26;67.98535;944.8186;;;;
2023/01/29 11:17:57;;;;;;;12.6;8.2;;;;;;;1.37;67.14258;944.7438;;;;
2023/01/29 11:20:23;;;;;;;12.9;8;;;;;;;1.42;67.6543;944.8237;;;;
2023/01/29 11:22:52;;;;;;;11.7;8.2;;;;;;;1.34;67.94336;944.7569;;;;
2023/01/29 11:25:18;;;;;;;10.3;7.2;;;;;;;1.32;67.55859;944.7338;;;;
2023/01/29 11:27:47;;;;;;;10.9;7.6;;;;;;;1.35;66.4707;944.6943;;;;
2023/01/29 11:30:20;;;;;;;10.9;7;;;;;;;1.61;65.56934;944.6463;;;;
2023/01/29 11:32:46;;;;;;;9.5;6.8;;;;;;;1.39;65.89355;944.6042;;;;
2023/01/29 11:35:13;;;;;;;9.8;6.6;;;;;;;1.58;65.65527;944.5424;;;;
2023/01/29 11:37:44;;;;;;;10.6;7.2;;;;;;;1.89;65.22168;944.4336;;;;
2023/01/29 11:40:18;;;;;;;11.1;7.7;;;;;;;1.87;65.54492;944.4642;;;;
2023/01/29 11:42:47;;;;;;;11.3;7.5;;;;;;;2.13;64.80176;944.4702;;;;
2023/01/29 11:45:19;;;;;;;10.3;7.2;;;;;;;2.19;64.08203;944.4117;;;;
2023/01/29 11:47:47;;;;;;;9.2;7.2;;;;;;;2.25;64.4502;944.4227;;;;
2023/01/29 11:50:16;;;;;;;10.5;7.2;;;;;;;2.39;64.63867;944.4486;;;;
2023/01/29 11:52:41;;;;;;;11.9;7.4;;;;;;;2.64;63.57715;944.4567;;;;
2023/01/29 11:55:09;;;;;;;10.2;7.1;;;;;;;2.79;62.81543;944.3635;;;;
2023/01/29 11:57:34;;;;;;;10.8;7.8;;;;;;;3.25;61.21094;944.4055;;;;
2023/01/29 11:59:59;;;;;;;9.6;6.8;;;;;;;5.64;55.01953;944.4269;;;;
2023/01/29 12:02:29;;;;;;;9.4;6.7;;;;;;;8.33;46.8457;944.3072;;;;
2023/01/29 12:04:52;;;;;;;9.8;6.5;;;;;;;8.84;45.54785;944.3433;;;;
2023/01/29 12:07:17;;;;;;;8.8;6.1;;;;;;;9.87;41.92969;944.3151;;;;
2023/01/29 12:09:42;;;;;;;9.4;6.5;;;;;;;10.04;41.50098;944.3078;;;;
2023/01/29 12:12:08;;;;;;;10.4;7;;;;;;;9.36;43.08691;944.3439;;;;
2023/01/29 12:14:34;;;;;;;10.3;6.7;;;;;;;8.67;43.96191;944.3649;;;;
2023/01/29 12:16:58;;;;;;;8.9;6.4;;;;;;;8.48;44.73633;944.2793;;;;
2023/01/29 12:19:27;;;;;;;10.4;6.7;;;;;;;8.72;44.05762;944.2877;;;;
2023/01/29 12:21:54;;;;;;;9.4;6.9;;;;;;;8.92;43.54297;944.2461;;;;
2023/01/29 12:24:23;;;;;;;8.3;6.2;;;;;;;9.43;42.82129;944.2443;;;;
2023/01/29 12:26:48;;;;;;;9.9;6.9;;;;;;;10.11;41.22168;944.0593;;;;
2023/01/29 12:29:14;;;;;;;9.1;6.5;;;;;;;10.71;39.8291;943.9773;;;;
2023/01/29 12:31:39;;;;;;;9.4;6.8;;;;;;;10.67;39.57422;943.9783;;;;
2023/01/29 12:34:04;;;;;;;11;7.1;;;;;;;11.28;38.88672;943.889;;;;
2023/01/29 12:36:31;;;;;;;8.8;6.6;;;;;;;10.63;39.70801;943.8453;;;;
2023/01/29 12:38:57;;;;;;;10.5;7.2;;;;;;;10.59;39.85156;943.8187;;;;
2023/01/29 12:41:21;;;;;;;10.6;7.6;;;;;;;10.87;39.62598;943.7678;;;;
2023/01/29 12:43:48;;;;;;;9.6;6.9;;;;;;;11.7;38.08789;943.5662;;;;
2023/01/29 12:46:13;;;;;;;12;7.3;;;;;;;11.98;37.23145;943.5258;;;;
2023/01/29 12:48:45;;;;;;;9.9;7.5;;;;;;;12.3;37.44141;943.4359;;;;
2023/01/29 12:51:10;;;;;;;8.3;6.3;;;;;;;13.67;34.33984;943.3962;;;;
2023/01/29 12:53:38;;;;;;;9.4;6.9;;;;;;;13.94;33.61328;943.3155;;;;
2023/01/29 12:56:03;;;;;;;8.9;6.9;;;;;;;13.72;33.61914;943.2252;;;;
2023/01/29 12:58:29;;;;;;;8.9;7;;;;;;;13.54;33.88086;943.1807;;;;
2023/01/29 13:00:54;;;;;;;9.8;7.3;;;;;;;13.36;34.43066;943.1609;;;;
2023/01/29 13:03:21;;;;;;;10.4;7.3;;;;;;;14.4;33.08398;943.0597;;;;
2023/01/29 13:05:46;;;;;;;11;7.8;;;;;;;15.27;31.71875;943.1022;;;;
2023/01/29 13:08:12;;;;;;;10;7.5;;;;;;;14.65;31.73145;943.0899;;;;
2023/01/29 13:10:37;;;;;;;9.5;7.3;;;;;;;14.1;32.99219;943.1426;;;;
2023/01/29 13:13:03;;;;;;;10.4;7.9;;;;;;;14.63;32.53711;943.122;;;;
2023/01/29 13:15:32;;;;;;;10.3;7.4;;;;;;;14.34;32.33008;943.1493;;;;
2023/01/29 13:17:57;;;;;;;10.4;7.5;;;;;;;13.3;33.93164;943.1892;;;;
2023/01/29 13:20:22;;;;;;;9;6.9;;;;;;;13.01;34.47168;943.3705;;;;
2023/01/29 13:22:47;;;;;;;11;7.5;;;;;;;12.62;35.67969;943.4278;;;;
2023/01/29 13:25:13;;;;;;;11;7.8;;;;;;;12.25;36.47461;943.4202;;;;
2023/01/29 13:27:38;;;;;;;11.5;7.6;;;;;;;13.09;35.17871;943.3711;;;;
2023/01/29 13:30:03;;;;;;;11.2;7.9;;;;;;;12.97;35.20215;943.3337;;;;
2023/01/29 13:32:28;;;;;;;10.8;7.9;;;;;;;13.35;34.77441;943.3583;;;;
2023/01/29 13:34:54;;;;;;;9.7;7.1;;;;;;;13.65;34.02734;943.34;;;;
2023/01/29 13:37:19;;;;;;;9.7;7.2;;;;;;;13.17;34.19629;943.3908;;;;
2023/01/29 13:39:45;;;;;;;10.1;7.3;;;;;;;12.62;35.51855;943.3096;;;;
2023/01/29 13:42:12;;;;;;;10.6;8;;;;;;;12.22;36.58594;943.2386;;;;
2023/01/29 13:44:38;;;;;;;11.8;8.5;;;;;;;11.7;37.21875;943.161;;;;
2023/01/29 13:47:07;;;;;;;12;8.2;;;;;;;11.4;38.13086;943.1946;;;;
2023/01/29 13:49:32;;;;;;;10.7;7.8;;;;;;;11.32;38.36426;943.1608;;;;
2023/01/29 13:51:58;;;;;;;12.2;7.7;;;;;;;11.25;38.62012;943.1136;;;;
2023/01/29 13:54:23;;;;;;;10.9;7.3;;;;;;;9.67;40.73633;943.1344;;;;
2023/01/29 13:56:52;;;;;;;9.3;6.7;;;;;;;9.65;41.42773;943.1195;;;;
2023/01/29 13:59:17;;;;;;;10.7;7.4;;;;;;;8.51;43.53711;943.1675;;;;
2023/01/29 14:01:43;;;;;;;10.4;7.1;;;;;;;8.62;43.84277;943.0306;;;;
2023/01/29 14:04:08;;;;;;;10.8;7;;;;;;;8.09;44.66211;943.1144;;;;
2023/01/29 14:06:33;;;;;;;11;7.5;;;;;;;7.62;45.91797;943.0948;;;;
2023/01/29 14:09:00;;;;;;;10.6;7.8;;;;;;;7.81;45.4043;943.0536;;;;
2023/01/29 14:11:23;;;;;;;15.1;9.1;;;;;;;7.72;45.70215;943.0199;;;;
2023/01/29 14:13:55;;;;;;;12.1;8.7;;;;;;;7.79;45.28906;942.9608;;;;
2023/01/29 14:16:23;;;;;;;11.5;8.7;;;;;;;8.19;44.43457;942.9363;;;;
2023/01/29 14:18:51;;;;;;;11.6;8.9;;;;;;;8.26;44.38574;942.9193;;;;
2023/01/29 14:21:15;;;;;;;11.3;8.1;;;;;;;8.23;44.6543;942.8954;;;;
2023/01/29 14:23:43;;;;;;;11.7;8.6;;;;;;;8.22;44.72168;942.889;;;;
2023/01/29 14:26:06;;;;;;;11.8;8.7;;;;;;;8.2;44.15234;942.8541;;;;
2023/01/29 14:28:31;;;;;;;12.2;8.6;;;;;;;8.12;44.43848;942.882;;;;
2023/01/29 14:30:59;;;;;;;12.5;8.7;;;;;;;7.86;44.89941;942.8606;;;;
2023/01/29 14:33:24;;;;;;;11.9;8.8;;;;;;;7.28;46.2666;942.861;;;;
2023/01/29 14:35:55;;;;;;;11.7;8.3;;;;;;;6.61;47.51855;942.8613;;;;
2023/01/29 14:38:19;;;;;;;12.5;9.2;;;;;;;6.3;48.78516;942.8627;;;;
2023/01/29 14:40:48;;;;;;;14;9.2;;;;;;;5.94;49.55664;942.7852;;;;
2023/01/29 14:43:18;;;;;;;13.9;9.6;;;;;;;5.56;50.83398;942.8464;;;;
2023/01/29 14:45:38;;;;;;;13.9;9.8;;;;;;;5.41;51.52637;942.8229;;;;
2023/01/29 14:48:03;;;;;;;13.8;9.5;;;;;;;5.24;51.96777;942.7635;;;;
2023/01/29 14:50:28;;;;;;;14.7;10.2;;;;;;;5;53.05566;942.657;;;;
2023/01/29 14:52:53;;;;;;;14.2;9.8;;;;;;;4.77;54.07422;942.6813;;;;
2023/01/29 14:55:19;;;;;;;13.9;10.2;;;;;;;4.57;55.16406;942.7151;;;;
2023/01/29 14:57:50;;;;;;;14.5;10.6;;;;;;;4.38;55.93848;942.783;;;;
2023/01/29 15:00:16;;;;;;;14.8;10.2;;;;;;;4.17;56.70801;942.8223;;;;
2023/01/29 15:02:42;;;;;;;14.2;10.5;;;;;;;4.12;57.43359;942.7778;;;;
2023/01/29 15:05:07;;;;;;;15;10.5;;;;;;;4.05;58.2998;942.7967;;;;
2023/01/29 15:07:32;;;;;;;16.7;10.1;;;;;;;3.99;58.0791;942.7917;;;;
2023/01/29 15:09:57;;;;;;;16.1;10.2;;;;;;;3.98;57.69531;942.7969;;;;
2023/01/29 15:12:22;;;;;;;14.3;10.1;;;;;;;3.75;59.26074;942.7798;;;;
2023/01/29 15:14:48;;;;;;;15.9;10.4;;;;;;;3.53;59.74609;942.8;;;;
2023/01/29 15:17:16;;;;;;;15.1;10.2;;;;;;;3.04;61.12598;942.8343;;;;
2023/01/29 15:19:43;;;;;;;15.9;10.7;;;;;;;2.7;61.36816;942.8529;;;;
2023/01/29 15:22:06;;;;;;;16.1;10.7;;;;;;;2.47;61.91699;942.8512;;;;
2023/01/29 15:24:33;;;;;;;17.2;10.7;;;;;;;2.5;62.37012;942.9661;;;;
2023/01/29 15:26:58;;;;;;;16.9;11.1;;;;;;;2.45;61.88086;942.9313;;;;
2023/01/29 15:29:24;;;;;;;15.8;10.5;;;;;;;2.4;62.49023;942.8591;;;;
2023/01/29 15:31:50;;;;;;;19.1;12.2;;;;;;;2.19;62.89453;942.8954;;;;
2023/01/29 15:34:15;;;;;;;17.2;11.7;;;;;;;2.11;63.31934;942.902;;;;
2023/01/29 15:36:41;;;;;;;18.3;12.3;;;;;;;1.89;63.62305;942.8854;;;;
2023/01/29 15:39:06;;;;;;;20.3;12.4;;;;;;;1.76;64.86816;942.8003;;;;
2023/01/29 15:41:35;;;;;;;21.2;13.1;;;;;;;1.62;66.24316;942.9575;;;;
2023/01/29 15:44:00;;;;;;;23.2;13.4;;;;;;;1.66;66.77441;942.9536;;;;
2023/01/29 15:46:25;;;;;;;22.6;14.2;;;;;;;1.56;66.83887;942.8323;;;;
2023/01/29 15:48:52;;;;;;;23.4;15;;;;;;;1.57;66.72656;942.9409;;;;
2023/01/29 15:51:17;;;;;;;24.3;15.4;;;;;;;1.49;66.84961;943.017;;;;